createdAt,value
2019-05-21T00:00:23.682Z,0.00
2019-05-21T00:01:23.735Z,0.00
2019-05-21T00:02:23.664Z,0.00
2019-05-21T00:03:23.637Z,0.00
2019-05-21T00:04:28.385Z,0.00
2019-05-21T00:05:24.826Z,0.00
2019-05-21T00:06:23.606Z,0.00
2019-05-21T00:07:23.578Z,0.00
2019-05-21T00:08:23.573Z,0.00
2019-05-21T00:09:23.543Z,0.00
2019-05-21T00:10:23.572Z,0.00
2019-05-21T00:11:23.598Z,0.00
2019-05-21T00:12:23.530Z,0.00
2019-05-21T00:13:23.455Z,0.00
2019-05-21T00:14:23.446Z,0.00
2019-05-21T00:15:23.467Z,0.00
2019-05-21T00:16:23.506Z,0.00
2019-05-21T00:17:23.465Z,0.00
2019-05-21T00:18:23.457Z,0.00
2019-05-21T00:19:23.454Z,0.00
2019-05-21T00:20:23.510Z,0.00
2019-05-21T00:21:23.444Z,0.00
2019-05-21T00:22:23.469Z,0.00
2019-05-21T00:23:23.415Z,0.00
2019-05-21T00:24:23.412Z,0.00
2019-05-21T00:25:23.466Z,0.00
2019-05-21T00:26:23.385Z,0.00
2019-05-21T00:27:23.403Z,0.00
2019-05-21T00:28:23.357Z,0.00
2019-05-21T00:29:23.324Z,0.00
2019-05-21T00:30:23.395Z,0.00
2019-05-21T00:31:23.341Z,0.00
2019-05-21T00:32:23.303Z,0.00
2019-05-21T00:33:23.306Z,0.00
2019-05-21T00:34:23.349Z,0.00
2019-05-21T00:35:23.250Z,0.00
2019-05-21T00:36:23.272Z,0.00
2019-05-21T00:37:23.268Z,0.00
2019-05-21T00:38:23.257Z,0.00
2019-05-21T00:39:23.237Z,0.00
2019-05-21T00:40:23.269Z,0.00
2019-05-21T00:41:23.264Z,0.00
2019-05-21T00:42:23.204Z,0.00
2019-05-21T00:43:23.186Z,0.00
2019-05-21T00:44:23.188Z,0.00
2019-05-21T00:45:23.168Z,0.00
2019-05-21T00:46:23.245Z,0.00
2019-05-21T00:47:23.160Z,0.00
2019-05-21T00:48:23.163Z,0.00
2019-05-21T00:49:23.133Z,0.00
2019-05-21T00:50:23.121Z,0.00
2019-05-21T00:51:23.157Z,0.00
2019-05-21T00:52:23.175Z,0.00
2019-05-21T00:53:23.091Z,0.00
2019-05-21T00:54:23.043Z,0.00
2019-05-21T00:55:23.009Z,0.00
2019-05-21T00:56:22.989Z,0.00
2019-05-21T00:57:23.015Z,0.00
2019-05-21T00:58:22.972Z,0.00
2019-05-21T00:59:22.966Z,0.00
2019-05-21T01:00:22.953Z,0.00
2019-05-21T01:01:22.937Z,0.00
2019-05-21T01:02:22.972Z,0.00
2019-05-21T01:03:22.915Z,0.00
2019-05-21T01:04:22.915Z,0.00
2019-05-21T01:05:22.899Z,0.00
2019-05-21T01:06:22.888Z,0.00
2019-05-21T01:07:22.881Z,0.00
2019-05-21T01:08:22.911Z,0.00
2019-05-21T01:09:22.861Z,0.00
2019-05-21T01:10:22.845Z,0.00
2019-05-21T01:11:22.832Z,0.00
2019-05-21T01:12:22.827Z,0.00
2019-05-21T01:13:22.847Z,0.00
2019-05-21T01:14:22.796Z,0.00
2019-05-21T01:15:22.785Z,0.00
2019-05-21T01:16:22.781Z,0.00
2019-05-21T01:17:22.817Z,0.00
2019-05-21T01:18:22.810Z,0.00
2019-05-21T01:19:22.759Z,0.00
2019-05-21T01:20:22.736Z,0.00
2019-05-21T01:21:22.730Z,0.00
2019-05-21T01:22:22.713Z,0.00
2019-05-21T01:23:22.742Z,0.00
2019-05-21T01:24:22.701Z,0.00
2019-05-21T01:25:22.702Z,0.00
2019-05-21T01:26:22.677Z,0.00
2019-05-21T01:27:22.674Z,0.00
2019-05-21T01:28:22.653Z,0.00
2019-05-21T01:29:22.669Z,0.00
2019-05-21T01:30:22.653Z,0.00
2019-05-21T01:31:22.713Z,0.00
2019-05-21T01:32:22.737Z,0.00
2019-05-21T01:33:22.637Z,0.00
2019-05-21T01:34:22.799Z,0.00
2019-05-21T01:35:22.655Z,0.00
2019-05-21T01:36:22.597Z,0.00
2019-05-21T01:37:22.664Z,0.00
2019-05-21T01:38:22.577Z,0.00
2019-05-21T01:39:22.674Z,0.00
2019-05-21T01:40:22.524Z,0.00
2019-05-21T01:41:22.545Z,0.00
2019-05-21T01:42:22.506Z,0.00
2019-05-21T01:43:22.490Z,0.00
2019-05-21T01:44:22.520Z,0.00
2019-05-21T01:45:22.491Z,0.00
2019-05-21T01:46:22.460Z,0.00
2019-05-21T01:47:22.450Z,0.00
2019-05-21T01:48:22.442Z,0.00
2019-05-21T01:49:22.483Z,0.00
2019-05-21T01:50:22.437Z,0.00
2019-05-21T01:51:22.415Z,0.00
2019-05-21T01:52:22.401Z,0.00
2019-05-21T01:53:22.387Z,0.00
2019-05-21T01:54:22.381Z,0.00
2019-05-21T01:55:22.418Z,0.00
2019-05-21T01:56:22.373Z,0.00
2019-05-21T01:57:22.353Z,0.00
2019-05-21T01:58:22.344Z,0.00
2019-05-21T01:59:22.327Z,0.00
2019-05-21T02:00:22.355Z,0.00
2019-05-21T02:01:22.301Z,0.00
2019-05-21T02:02:22.307Z,0.00
2019-05-21T02:03:22.297Z,0.00
2019-05-21T02:04:22.267Z,0.00
2019-05-21T02:05:32.570Z,0.00
2019-05-21T02:06:23.291Z,0.00
2019-05-21T02:07:22.248Z,0.00
2019-05-21T02:08:22.247Z,0.00
2019-05-21T02:09:22.224Z,0.00
2019-05-21T02:10:22.221Z,0.00
2019-05-21T02:11:22.233Z,0.00
2019-05-21T02:12:22.209Z,0.00
2019-05-21T02:13:22.194Z,0.00
2019-05-21T02:14:22.254Z,0.00
2019-05-21T02:15:22.197Z,0.00
2019-05-21T02:16:22.203Z,0.00
2019-05-21T02:17:22.134Z,0.00
2019-05-21T02:18:22.174Z,0.00
2019-05-21T02:19:24.682Z,0.00
2019-05-21T02:20:22.105Z,0.00
2019-05-21T02:21:22.114Z,0.00
2019-05-21T02:22:22.082Z,0.00
2019-05-21T02:23:22.068Z,0.00
2019-05-21T02:24:22.058Z,0.00
2019-05-21T02:25:22.045Z,0.00
2019-05-21T02:26:22.095Z,0.00
2019-05-21T02:27:22.023Z,0.00
2019-05-21T02:28:22.014Z,0.00
2019-05-21T02:29:22.002Z,0.00
2019-05-21T02:30:22.005Z,0.00
2019-05-21T02:31:22.005Z,4.00
2019-05-21T02:32:22.045Z,4.00
2019-05-21T02:33:21.954Z,4.00
2019-05-21T02:34:21.949Z,4.00
2019-05-21T02:35:21.936Z,0.00
2019-05-21T02:36:21.957Z,4.00
2019-05-21T02:37:21.910Z,4.00
2019-05-21T02:38:21.906Z,8.00
2019-05-21T02:39:21.890Z,4.00
2019-05-21T02:40:21.889Z,8.00
2019-05-21T02:41:21.943Z,8.00
2019-05-21T02:42:21.869Z,8.00
2019-05-21T02:43:21.852Z,12.00
2019-05-21T02:44:21.835Z,12.00
2019-05-21T02:45:21.828Z,12.00
2019-05-21T02:46:21.861Z,12.00
2019-05-21T02:47:21.824Z,16.00
2019-05-21T02:48:21.798Z,16.00
2019-05-21T02:49:21.788Z,20.00
2019-05-21T02:50:21.772Z,24.00
2019-05-21T02:51:21.816Z,24.00
2019-05-21T02:52:21.759Z,28.00
2019-05-21T02:53:21.747Z,32.00
2019-05-21T02:54:39.258Z,36.00
2019-05-21T02:55:22.735Z,40.00
2019-05-21T02:56:21.706Z,40.00
2019-05-21T02:57:21.727Z,44.00
2019-05-21T02:58:21.687Z,48.00
2019-05-21T02:59:21.678Z,52.00
2019-05-21T03:00:21.694Z,56.00
2019-05-21T03:01:21.706Z,64.00
2019-05-21T03:02:21.647Z,68.00
2019-05-21T03:03:21.637Z,76.00
2019-05-21T03:04:21.621Z,84.00
2019-05-21T03:05:21.623Z,92.00
2019-05-21T03:06:21.606Z,96.00
2019-05-21T03:07:25.233Z,104.00
2019-05-21T03:08:21.576Z,116.00
2019-05-21T03:09:21.567Z,120.00
2019-05-21T03:10:21.558Z,128.00
2019-05-21T03:11:21.561Z,140.00
2019-05-21T03:12:21.619Z,148.00
2019-05-21T03:13:21.525Z,156.00
2019-05-21T03:14:21.541Z,168.00
2019-05-21T03:15:21.506Z,176.00
2019-05-21T03:16:21.497Z,188.00
2019-05-21T03:17:21.529Z,196.00
2019-05-21T03:18:21.471Z,212.00
2019-05-21T03:19:21.462Z,224.00
2019-05-21T03:20:21.453Z,236.00
2019-05-21T03:21:21.448Z,244.00
2019-05-21T03:22:21.432Z,260.00
2019-05-21T03:23:21.448Z,268.00
2019-05-21T03:24:21.409Z,284.00
2019-05-21T03:25:21.410Z,296.00
2019-05-21T03:26:21.389Z,312.00
2019-05-21T03:27:21.379Z,324.00
2019-05-21T03:28:21.399Z,332.00
2019-05-21T03:29:21.347Z,348.00
2019-05-21T03:30:21.342Z,360.00
2019-05-21T03:31:21.398Z,376.00
2019-05-21T03:32:21.324Z,388.00
2019-05-21T03:33:21.375Z,396.00
2019-05-21T03:34:21.373Z,412.00
2019-05-21T03:35:21.291Z,424.00
2019-05-21T03:36:32.849Z,436.00
2019-05-21T03:37:22.270Z,448.00
2019-05-21T03:38:21.262Z,464.00
2019-05-21T03:39:21.278Z,476.00
2019-05-21T03:40:21.230Z,492.00
2019-05-21T03:41:21.219Z,504.00
2019-05-21T03:42:21.211Z,516.00
2019-05-21T03:43:21.195Z,532.00
2019-05-21T03:44:21.227Z,540.00
2019-05-21T03:45:21.185Z,556.00
2019-05-21T03:46:21.173Z,572.00
2019-05-21T03:47:21.167Z,584.00
2019-05-21T03:48:21.152Z,596.00
2019-05-21T03:49:21.164Z,612.00
2019-05-21T03:50:21.126Z,624.00
2019-05-21T03:51:21.117Z,636.00
2019-05-21T03:52:21.108Z,652.00
2019-05-21T03:53:21.101Z,664.00
2019-05-21T03:54:21.128Z,676.00
2019-05-21T03:55:21.068Z,684.00
2019-05-21T03:56:21.064Z,696.00
2019-05-21T03:57:21.057Z,708.00
2019-05-21T03:58:21.044Z,716.00
2019-05-21T03:59:21.083Z,728.00
2019-05-21T04:00:21.016Z,744.00
2019-05-21T04:01:21.005Z,760.00
2019-05-21T04:02:20.992Z,772.00
2019-05-21T04:03:20.996Z,784.00
2019-05-21T04:04:20.995Z,800.00
2019-05-21T04:05:21.026Z,816.00
2019-05-21T04:06:20.956Z,824.00
2019-05-21T04:07:20.950Z,832.00
2019-05-21T04:08:21.022Z,844.00
2019-05-21T04:09:20.921Z,856.00
2019-05-21T04:10:20.949Z,868.00
2019-05-21T04:11:20.899Z,876.00
2019-05-21T04:12:20.886Z,888.00
2019-05-21T04:13:20.875Z,904.00
2019-05-21T04:14:20.868Z,908.00
2019-05-21T04:15:20.859Z,920.00
2019-05-21T04:16:20.898Z,932.00
2019-05-21T04:17:20.838Z,948.00
2019-05-21T04:18:20.821Z,960.00
2019-05-21T04:19:20.846Z,964.00
2019-05-21T04:20:20.799Z,976.00
2019-05-21T04:21:20.788Z,992.00
2019-05-21T04:22:20.826Z,1004.00
2019-05-21T04:23:20.773Z,1012.00
2019-05-21T04:24:20.761Z,1028.00
2019-05-21T04:25:20.752Z,1032.00
2019-05-21T04:26:20.740Z,1048.00
2019-05-21T04:27:20.785Z,1052.00
2019-05-21T04:28:20.720Z,1060.00
2019-05-21T04:29:20.710Z,1072.00
2019-05-21T04:30:20.697Z,1084.00
2019-05-21T04:31:20.682Z,1096.00
2019-05-21T04:32:20.669Z,1108.00
2019-05-21T04:33:20.721Z,1120.00
2019-05-21T04:34:20.696Z,1132.00
2019-05-21T04:35:20.647Z,1144.00
2019-05-21T04:36:20.643Z,1152.00
2019-05-21T04:37:20.618Z,1160.00
2019-05-21T04:38:20.639Z,1180.00
2019-05-21T04:39:20.599Z,1184.00
2019-05-21T04:40:20.589Z,1192.00
2019-05-21T04:41:20.576Z,1208.00
2019-05-21T04:42:20.560Z,1224.00
2019-05-21T04:43:20.584Z,1232.00
2019-05-21T04:44:20.540Z,1248.00
2019-05-21T04:45:20.594Z,1260.00
2019-05-21T04:46:20.526Z,1268.00
2019-05-21T04:47:20.516Z,1280.00
2019-05-21T04:48:20.556Z,1292.00
2019-05-21T04:49:20.485Z,1308.00
2019-05-21T04:50:20.473Z,1328.00
2019-05-21T04:51:20.467Z,1344.00
2019-05-21T04:52:20.454Z,1360.00
2019-05-21T04:53:20.469Z,1384.00
2019-05-21T04:54:20.435Z,1396.00
2019-05-21T04:55:20.422Z,1408.00
2019-05-21T04:56:20.410Z,1428.00
2019-05-21T04:57:20.412Z,1440.00
2019-05-21T04:58:20.419Z,1460.00
2019-05-21T04:59:20.386Z,1476.00
2019-05-21T05:00:20.375Z,1492.00
2019-05-21T05:01:20.359Z,1512.00
2019-05-21T05:02:20.396Z,1528.00
2019-05-21T05:03:20.337Z,1552.00
2019-05-21T05:04:21.703Z,1584.00
2019-05-21T05:05:20.322Z,1592.00
2019-05-21T05:06:20.333Z,1604.00
2019-05-21T05:07:28.064Z,1628.00
2019-05-21T05:08:21.336Z,1652.00
2019-05-21T05:09:20.273Z,1684.00
2019-05-21T05:10:20.282Z,1700.00
2019-05-21T05:11:20.256Z,1712.00
2019-05-21T05:12:20.247Z,1748.00
2019-05-21T05:13:20.328Z,1760.00
2019-05-21T05:14:20.218Z,1776.00
2019-05-21T05:15:20.210Z,1812.00
2019-05-21T05:16:20.199Z,1832.00
2019-05-21T05:17:20.192Z,1868.00
2019-05-21T05:18:20.233Z,1884.00
2019-05-21T05:19:20.174Z,1904.00
2019-05-21T05:20:20.164Z,1920.00
2019-05-21T05:21:20.145Z,1940.00
2019-05-21T05:22:20.133Z,1952.00
2019-05-21T05:23:20.158Z,1964.00
2019-05-21T05:24:20.138Z,1968.00
2019-05-21T05:25:20.110Z,2004.00
2019-05-21T05:26:20.094Z,2040.00
2019-05-21T05:27:20.137Z,2056.00
2019-05-21T05:28:20.572Z,2084.00
2019-05-21T05:29:20.074Z,2104.00
2019-05-21T05:30:20.057Z,2132.00
2019-05-21T05:31:20.038Z,2144.00
2019-05-21T05:32:20.027Z,2152.00
2019-05-21T05:33:20.068Z,2188.00
2019-05-21T05:34:20.010Z,2200.00
2019-05-21T05:35:20.018Z,2232.00
2019-05-21T05:36:19.990Z,2248.00
2019-05-21T05:37:19.981Z,2276.00
2019-05-21T05:38:20.040Z,2316.00
2019-05-21T05:39:19.953Z,2344.00
2019-05-21T05:40:19.948Z,2368.00
2019-05-21T05:41:19.950Z,2380.00
2019-05-21T05:42:19.927Z,2436.00
2019-05-21T05:43:20.699Z,2460.00
2019-05-21T05:44:19.939Z,2472.00
2019-05-21T05:45:19.889Z,2504.00
2019-05-21T05:46:19.879Z,2528.00
2019-05-21T05:47:19.879Z,2572.00
2019-05-21T05:48:19.865Z,2608.00
2019-05-21T05:49:19.862Z,2628.00
2019-05-21T05:50:19.889Z,2680.00
2019-05-21T05:51:19.840Z,2704.00
2019-05-21T05:52:19.820Z,2688.00
2019-05-21T05:53:19.811Z,2668.00
2019-05-21T05:54:19.800Z,2688.00
2019-05-21T05:55:19.816Z,2748.00
2019-05-21T05:56:19.771Z,2776.00
2019-05-21T05:57:19.767Z,2832.00
2019-05-21T05:58:19.754Z,2868.00
2019-05-21T05:59:19.742Z,2868.00
2019-05-21T06:00:19.733Z,2860.00
2019-05-21T06:01:19.773Z,2884.00
2019-05-21T06:02:19.705Z,2912.00
2019-05-21T06:03:19.709Z,2896.00
2019-05-21T06:04:19.739Z,2932.00
2019-05-21T06:05:19.680Z,2976.00
2019-05-21T06:06:19.674Z,2984.00
2019-05-21T06:07:19.655Z,3004.00
2019-05-21T06:08:19.644Z,3036.00
2019-05-21T06:09:19.704Z,3052.00
2019-05-21T06:10:19.632Z,3068.00
2019-05-21T06:11:19.783Z,3084.00
2019-05-21T06:12:19.607Z,3132.00
2019-05-21T06:13:19.590Z,3204.00
2019-05-21T06:14:19.604Z,3264.00
2019-05-21T06:15:19.577Z,3296.00
2019-05-21T06:16:19.616Z,3356.00
2019-05-21T06:17:19.560Z,3420.00
2019-05-21T06:18:19.552Z,3516.00
2019-05-21T06:19:19.551Z,3588.00
2019-05-21T06:20:19.514Z,3660.00
2019-05-21T06:21:19.504Z,3736.00
2019-05-21T06:22:19.509Z,3844.00
2019-05-21T06:23:19.487Z,3928.00
2019-05-21T06:24:19.501Z,3996.00
2019-05-21T06:25:19.467Z,4076.00
2019-05-21T06:26:19.455Z,4120.00
2019-05-21T06:27:19.440Z,4168.00
2019-05-21T06:28:19.432Z,4216.00
2019-05-21T06:29:19.461Z,4236.00
2019-05-21T06:30:19.411Z,4284.00
2019-05-21T06:31:19.400Z,4352.00
2019-05-21T06:32:19.394Z,4452.00
2019-05-21T06:33:19.380Z,4528.00
2019-05-21T06:34:19.401Z,4596.00
2019-05-21T06:35:19.359Z,4680.00
2019-05-21T06:36:19.456Z,4748.00
2019-05-21T06:37:19.338Z,4856.00
2019-05-21T06:38:19.334Z,4964.00
2019-05-21T06:39:19.336Z,5060.00
2019-05-21T06:40:19.298Z,5160.00
2019-05-21T06:41:19.300Z,5284.00
2019-05-21T06:42:19.278Z,5416.00
2019-05-21T06:43:19.282Z,5576.00
2019-05-21T06:44:19.295Z,5748.00
2019-05-21T06:45:19.245Z,5856.00
2019-05-21T06:46:19.271Z,6064.00
2019-05-21T06:47:19.262Z,6412.00
2019-05-21T06:48:19.220Z,5120.00
2019-05-21T06:49:19.208Z,5704.00
2019-05-21T06:50:19.196Z,6764.00
2019-05-21T06:51:19.327Z,7320.00
2019-05-21T06:52:19.208Z,7560.00
2019-05-21T06:53:19.436Z,7724.00
2019-05-21T06:54:19.422Z,7688.00
2019-05-21T06:55:19.166Z,7660.00
2019-05-21T06:56:19.226Z,7668.00
2019-05-21T06:57:19.132Z,7860.00
2019-05-21T06:58:19.187Z,8028.00
2019-05-21T06:59:19.115Z,8252.00
2019-05-21T07:00:19.086Z,8468.00
2019-05-21T07:01:27.616Z,8636.00
2019-05-21T07:02:20.068Z,8700.00
2019-05-21T07:03:19.054Z,8660.00
2019-05-21T07:04:19.098Z,8768.00
2019-05-21T07:05:19.039Z,8892.00
2019-05-21T07:06:19.021Z,8940.00
2019-05-21T07:07:19.042Z,8896.00
2019-05-21T07:08:33.638Z,8840.00
2019-05-21T07:09:20.027Z,8824.00
2019-05-21T07:10:18.983Z,8844.00
2019-05-21T07:11:18.970Z,8844.00
2019-05-21T07:12:19.043Z,8844.00
2019-05-21T07:13:18.948Z,8884.00
2019-05-21T07:14:18.990Z,8940.00
2019-05-21T07:15:18.932Z,8980.00
2019-05-21T07:16:18.921Z,9012.00
2019-05-21T07:17:18.905Z,8984.00
2019-05-21T07:18:18.934Z,9024.00
2019-05-21T07:19:18.887Z,9172.00
2019-05-21T07:20:18.886Z,9400.00
2019-05-21T07:21:18.872Z,9824.00
2019-05-21T07:22:18.856Z,10752.00
2019-05-21T07:23:18.840Z,20544.00
2019-05-21T07:24:18.873Z,44032.00
2019-05-21T07:25:18.846Z,64512.00
2019-05-21T07:26:18.872Z,69824.00
2019-05-21T07:27:18.806Z,74016.00
2019-05-21T07:28:18.820Z,71392.00
2019-05-21T07:29:18.815Z,67584.00
2019-05-21T07:30:18.772Z,68224.00
2019-05-21T07:31:19.401Z,72608.00
2019-05-21T07:32:18.746Z,75168.00
2019-05-21T07:33:18.740Z,74272.00
2019-05-21T07:34:18.768Z,75776.00
2019-05-21T07:35:18.716Z,76736.00
2019-05-21T07:36:18.703Z,78592.00
2019-05-21T07:37:18.697Z,79488.00
2019-05-21T07:38:18.687Z,79232.00
2019-05-21T07:39:18.701Z,74176.00
2019-05-21T07:40:18.706Z,66496.00
2019-05-21T07:41:20.413Z,74112.00
2019-05-21T07:42:18.760Z,72800.00
2019-05-21T07:43:18.636Z,64160.00
2019-05-21T07:44:18.741Z,73504.00
2019-05-21T07:45:18.620Z,78176.00
2019-05-21T07:46:18.621Z,88672.00
2019-05-21T07:47:18.666Z,88544.00
2019-05-21T07:48:18.610Z,88896.00
2019-05-21T07:49:18.587Z,89856.00
2019-05-21T07:50:18.595Z,89600.00
2019-05-21T07:51:18.637Z,88928.00
2019-05-21T07:52:18.564Z,87072.00
2019-05-21T07:53:18.619Z,88512.00
2019-05-21T07:54:18.544Z,89120.00
2019-05-21T07:55:18.586Z,90912.00
2019-05-21T07:56:18.548Z,89120.00
2019-05-21T07:57:18.511Z,89760.00
2019-05-21T07:58:18.504Z,88736.00
2019-05-21T07:59:18.493Z,90528.00
2019-05-21T08:00:18.528Z,88032.00
2019-05-21T08:01:18.547Z,85792.00
2019-05-21T08:02:18.525Z,85056.00
2019-05-21T08:03:18.581Z,86016.00
2019-05-21T08:04:18.448Z,86272.00
2019-05-21T08:05:18.468Z,87680.00
2019-05-21T08:06:18.495Z,90048.00
2019-05-21T08:07:18.436Z,91744.00
2019-05-21T08:08:18.509Z,94240.00
2019-05-21T08:09:18.879Z,92256.00
2019-05-21T08:10:18.587Z,88768.00
2019-05-21T08:11:18.392Z,86656.00
2019-05-21T08:12:37.197Z,86752.00
2019-05-21T08:13:19.378Z,88256.00
2019-05-21T08:14:18.376Z,90560.00
2019-05-21T08:15:18.388Z,90656.00
2019-05-21T08:16:18.438Z,87680.00
2019-05-21T08:17:18.365Z,87680.00
2019-05-21T08:18:18.403Z,89472.00
2019-05-21T08:19:18.328Z,93120.00
2019-05-21T08:20:18.357Z,95360.00
2019-05-21T08:21:18.304Z,97312.00
2019-05-21T08:22:18.300Z,98368.00
2019-05-21T08:23:18.298Z,99232.00
2019-05-21T08:24:18.299Z,100640.00
2019-05-21T08:25:18.313Z,97728.00
2019-05-21T08:26:18.303Z,90592.00
2019-05-21T08:27:18.257Z,88096.00
2019-05-21T08:28:18.252Z,85440.00
2019-05-21T08:29:26.936Z,89696.00
2019-05-21T08:30:18.331Z,96448.00
2019-05-21T08:31:18.231Z,104832.00
2019-05-21T08:32:18.222Z,108416.00
2019-05-21T08:33:18.249Z,106112.00
2019-05-21T08:34:18.207Z,101184.00
2019-05-21T08:35:18.220Z,96992.00
2019-05-21T08:36:18.213Z,101888.00
2019-05-21T08:37:18.233Z,108928.00
2019-05-21T08:38:18.170Z,112448.00
2019-05-21T08:39:28.337Z,112992.00
2019-05-21T08:40:19.197Z,116192.00
2019-05-21T08:41:18.155Z,115008.00
2019-05-21T08:42:18.146Z,111712.00
2019-05-21T08:43:18.149Z,110368.00
2019-05-21T08:44:18.143Z,108768.00
2019-05-21T08:45:18.157Z,108448.00
2019-05-21T08:46:18.135Z,106944.00
2019-05-21T08:47:18.108Z,107296.00
2019-05-21T08:48:18.124Z,109664.00
2019-05-21T08:49:18.102Z,112320.00
2019-05-21T08:50:18.092Z,117600.00
2019-05-21T08:51:18.098Z,118304.00
2019-05-21T08:52:18.099Z,113344.00
2019-05-21T08:53:18.072Z,118880.00
2019-05-21T08:54:18.064Z,116544.00
2019-05-21T08:55:18.060Z,114976.00
2019-05-21T08:56:18.071Z,110432.00
2019-05-21T08:57:18.064Z,102240.00
2019-05-21T08:58:18.030Z,100064.00
2019-05-21T08:59:18.028Z,99872.00
2019-05-21T09:00:18.018Z,14788.00
2019-05-21T09:01:18.044Z,14524.00
2019-05-21T09:02:18.037Z,115264.00
2019-05-21T09:03:18.059Z,117024.00
2019-05-21T09:04:18.056Z,118048.00
2019-05-21T09:05:18.031Z,98816.00
2019-05-21T09:06:18.097Z,104992.00
2019-05-21T09:07:18.027Z,116352.00
2019-05-21T09:08:18.010Z,119392.00
2019-05-21T09:09:18.010Z,118272.00
2019-05-21T09:10:17.998Z,119392.00
2019-05-21T09:11:18.069Z,118400.00
2019-05-21T09:12:17.994Z,118496.00
2019-05-21T09:13:18.342Z,118688.00
2019-05-21T09:14:18.180Z,44224.00
2019-05-21T09:15:18.004Z,101120.00
2019-05-21T09:16:18.036Z,111008.00
2019-05-21T09:17:17.960Z,110592.00
2019-05-21T09:18:17.944Z,113056.00
2019-05-21T09:19:17.934Z,114208.00
2019-05-21T09:20:17.925Z,118560.00
2019-05-21T09:21:18.013Z,8560.00
2019-05-21T09:22:17.913Z,8588.00
2019-05-21T09:23:17.907Z,9480.00
2019-05-21T09:24:17.917Z,7932.00
2019-05-21T09:25:17.926Z,7316.00
2019-05-21T09:26:18.245Z,10188.00
2019-05-21T09:27:17.891Z,9964.00
2019-05-21T09:28:17.877Z,23872.00
2019-05-21T09:29:17.866Z,16048.00
2019-05-21T09:30:17.861Z,92416.00
2019-05-21T09:31:17.868Z,105376.00
2019-05-21T09:32:17.922Z,124192.00
2019-05-21T09:33:17.850Z,116416.00
2019-05-21T09:34:17.853Z,52192.00
2019-05-21T09:35:17.797Z,50944.00
2019-05-21T09:36:17.837Z,112416.00
2019-05-21T09:37:20.032Z,43904.00
2019-05-21T09:38:17.974Z,95392.00
2019-05-21T09:39:17.757Z,96544.00
2019-05-21T09:40:17.766Z,14268.00
2019-05-21T09:41:17.772Z,11744.00
2019-05-21T09:42:17.774Z,11440.00
2019-05-21T09:43:17.817Z,10084.00
2019-05-21T09:44:17.759Z,9760.00
2019-05-21T09:45:17.755Z,10188.00
2019-05-21T09:46:17.729Z,12592.00
2019-05-21T09:47:17.734Z,23872.00
2019-05-21T09:48:17.781Z,47552.00
2019-05-21T09:49:17.697Z,105088.00
2019-05-21T09:50:17.703Z,131776.00
2019-05-21T09:51:20.055Z,140640.00
2019-05-21T09:52:17.670Z,10752.00
2019-05-21T09:53:17.731Z,9388.00
2019-05-21T09:54:17.617Z,8800.00
2019-05-21T09:55:17.622Z,9156.00
2019-05-21T09:56:17.572Z,11004.00
2019-05-21T09:57:17.578Z,14184.00
2019-05-21T09:58:17.597Z,14148.00
2019-05-21T09:59:17.548Z,12092.00
2019-05-21T10:00:17.594Z,11876.00
2019-05-21T10:01:17.528Z,13744.00
2019-05-21T10:02:17.520Z,89280.00
2019-05-21T10:03:17.529Z,146080.00
2019-05-21T10:04:17.495Z,142720.00
2019-05-21T10:05:17.493Z,138816.00
2019-05-21T10:06:17.511Z,135968.00
2019-05-21T10:07:17.477Z,137440.00
2019-05-21T10:08:17.642Z,141984.00
2019-05-21T10:09:17.465Z,143712.00
2019-05-21T10:10:17.445Z,145120.00
2019-05-21T10:11:17.441Z,142816.00
2019-05-21T10:12:17.433Z,140160.00
2019-05-21T10:13:17.452Z,139712.00
2019-05-21T10:14:17.463Z,139456.00
2019-05-21T10:15:17.407Z,141984.00
2019-05-21T10:16:17.424Z,141504.00
2019-05-21T10:17:17.395Z,142176.00
2019-05-21T10:18:17.388Z,138016.00
2019-05-21T10:19:17.417Z,128896.00
2019-05-21T10:20:17.374Z,115616.00
2019-05-21T10:21:17.398Z,116352.00
2019-05-21T10:22:17.414Z,75712.00
2019-05-21T10:23:17.349Z,86688.00
2019-05-21T10:24:17.374Z,91168.00
2019-05-21T10:25:17.342Z,102816.00
2019-05-21T10:26:17.334Z,105056.00
2019-05-21T10:27:17.356Z,101984.00
2019-05-21T10:28:17.312Z,56128.00
2019-05-21T10:29:17.353Z,24032.00
2019-05-21T10:30:17.306Z,22656.00
2019-05-21T10:31:17.296Z,22368.00
2019-05-21T10:32:17.288Z,21856.00
2019-05-21T10:33:17.276Z,17856.00
2019-05-21T10:34:17.304Z,15196.00
2019-05-21T10:35:17.258Z,14264.00
2019-05-21T10:36:17.256Z,10860.00
2019-05-21T10:37:17.279Z,9980.00
2019-05-21T10:38:17.236Z,12016.00
2019-05-21T10:39:17.263Z,13912.00
2019-05-21T10:40:17.230Z,10172.00
2019-05-21T10:41:17.203Z,10916.00
2019-05-21T10:42:17.230Z,9340.00
2019-05-21T10:43:17.192Z,13320.00
2019-05-21T10:44:17.274Z,16960.00
2019-05-21T10:45:17.168Z,17408.00
2019-05-21T10:46:17.158Z,16416.00
2019-05-21T10:47:17.164Z,15216.00
2019-05-21T10:48:17.137Z,12580.00
2019-05-21T10:49:17.138Z,9056.00
2019-05-21T10:50:17.159Z,9860.00
2019-05-21T10:51:17.117Z,9176.00
2019-05-21T10:52:17.110Z,9180.00
2019-05-21T10:53:17.093Z,12608.00
2019-05-21T10:54:17.081Z,12848.00
2019-05-21T10:55:17.749Z,11672.00
2019-05-21T10:56:17.060Z,12300.00
2019-05-21T10:57:17.058Z,13164.00
2019-05-21T10:58:17.052Z,13688.00
2019-05-21T10:59:17.073Z,13944.00
2019-05-21T11:00:17.058Z,12872.00
2019-05-21T11:01:17.101Z,10624.00
2019-05-21T11:02:17.004Z,13516.00
2019-05-21T11:03:17.073Z,13956.00
2019-05-21T11:04:16.988Z,14384.00
2019-05-21T11:05:17.005Z,15064.00
2019-05-21T11:06:16.993Z,15416.00
2019-05-21T11:07:16.947Z,15640.00
2019-05-21T11:08:25.180Z,15988.00
2019-05-21T11:09:17.988Z,16544.00
2019-05-21T11:10:16.977Z,16040.00
2019-05-21T11:11:21.117Z,15804.00
2019-05-21T11:12:16.905Z,14328.00
2019-05-21T11:13:16.889Z,13708.00
2019-05-21T11:14:16.882Z,13068.00
2019-05-21T11:15:16.876Z,12184.00
2019-05-21T11:16:16.887Z,11208.00
2019-05-21T11:17:16.847Z,10564.00
2019-05-21T11:18:16.840Z,10616.00
2019-05-21T11:19:16.829Z,10240.00
2019-05-21T11:20:16.820Z,10012.00
2019-05-21T11:21:16.851Z,10080.00
2019-05-21T11:22:17.444Z,10068.00
2019-05-21T11:23:16.793Z,10524.00
2019-05-21T11:24:16.832Z,10940.00
2019-05-21T11:25:16.765Z,11152.00
2019-05-21T11:26:16.809Z,11204.00
2019-05-21T11:27:16.747Z,11044.00
2019-05-21T11:28:16.742Z,11032.00
2019-05-21T11:29:16.731Z,11620.00
2019-05-21T11:30:16.725Z,11880.00
2019-05-21T11:31:16.731Z,11700.00
2019-05-21T11:32:16.744Z,12376.00
2019-05-21T11:33:16.692Z,12624.00
2019-05-21T11:34:16.684Z,12672.00
2019-05-21T11:35:16.667Z,13388.00
2019-05-21T11:36:16.663Z,13824.00
2019-05-21T11:37:16.677Z,12728.00
2019-05-21T11:38:16.635Z,12584.00
2019-05-21T11:39:16.670Z,10980.00
2019-05-21T11:40:16.612Z,10736.00
2019-05-21T11:41:16.729Z,10960.00
2019-05-21T11:42:16.633Z,11124.00
2019-05-21T11:43:16.597Z,10952.00
2019-05-21T11:44:16.576Z,10884.00
2019-05-21T11:45:31.133Z,10664.00
2019-05-21T11:46:17.597Z,10352.00
2019-05-21T11:47:16.545Z,9868.00
2019-05-21T11:48:16.585Z,9556.00
2019-05-21T11:49:16.528Z,9016.00
2019-05-21T11:50:16.510Z,8808.00
2019-05-21T11:51:16.668Z,8224.00
2019-05-21T11:52:16.518Z,8076.00
2019-05-21T11:53:16.481Z,8320.00
2019-05-21T11:54:16.965Z,8800.00
2019-05-21T11:55:16.461Z,9396.00
2019-05-21T11:56:16.450Z,9936.00
2019-05-21T11:57:16.468Z,9900.00
2019-05-21T11:58:16.457Z,9624.00
2019-05-21T11:59:16.433Z,9824.00
2019-05-21T12:00:16.402Z,9852.00
2019-05-21T12:01:16.579Z,9932.00
2019-05-21T12:02:16.387Z,9628.00
2019-05-21T12:03:16.409Z,9260.00
2019-05-21T12:04:16.367Z,9128.00
2019-05-21T12:05:16.354Z,9096.00
2019-05-21T12:06:16.354Z,9264.00
2019-05-21T12:07:16.345Z,9336.00
2019-05-21T12:08:16.347Z,8900.00
2019-05-21T12:09:16.320Z,8984.00
2019-05-21T12:10:16.298Z,8068.00
2019-05-21T12:11:16.397Z,7548.00
2019-05-21T12:12:16.365Z,7296.00
2019-05-21T12:13:20.293Z,7372.00
2019-05-21T12:14:16.262Z,7240.00